sensor_id;sensor_type;location;lat;lon;timestamp;pressure;altitude;pressure_sealevel;temperature;humidity
11952;BME280;6036;41.840;23.486;2022-07-06T00:01:03;90630.53;;;21.03;71.81
11952;BME280;6036;41.840;23.486;2022-07-06T00:03:28;90623.69;;;21.05;71.59
11952;BME280;6036;41.840;23.486;2022-07-06T00:05:54;90627.06;;;21.13;71.35
11952;BME280;6036;41.840;23.486;2022-07-06T00:08:19;90603.00;;;21.23;71.09
11952;BME280;6036;41.840;23.486;2022-07-06T00:10:44;90590.38;;;21.31;69.53
11952;BME280;6036;41.840;23.486;2022-07-06T00:13:10;90598.91;;;21.56;68.64
11952;BME280;6036;41.840;23.486;2022-07-06T00:15:35;90607.16;;;21.65;67.46
11952;BME280;6036;41.840;23.486;2022-07-06T00:18:01;90616.34;;;21.64;68.19
11952;BME280;6036;41.840;23.486;2022-07-06T00:20:26;90607.25;;;21.58;68.53
11952;BME280;6036;41.840;23.486;2022-07-06T00:22:51;90608.00;;;20.59;72.63
11952;BME280;6036;41.840;23.486;2022-07-06T00:25:17;90609.09;;;19.89;76.29
11952;BME280;6036;41.840;23.486;2022-07-06T00:27:42;90596.03;;;20.20;75.29
11952;BME280;6036;41.840;23.486;2022-07-06T00:30:08;90591.41;;;19.48;78.71
11952;BME280;6036;41.840;23.486;2022-07-06T00:32:33;90583.03;;;19.53;78.29
11952;BME280;6036;41.840;23.486;2022-07-06T00:34:59;90576.03;;;20.01;76.09
11952;BME280;6036;41.840;23.486;2022-07-06T00:37:24;90577.38;;;20.37;74.07
11952;BME280;6036;41.840;23.486;2022-07-06T00:39:50;90577.34;;;20.44;74.21
11952;BME280;6036;41.840;23.486;2022-07-06T00:42:15;90567.50;;;20.41;75.20
11952;BME280;6036;41.840;23.486;2022-07-06T00:44:40;90562.25;;;20.31;75.82
11952;BME280;6036;41.840;23.486;2022-07-06T00:47:06;90550.91;;;20.16;76.15
11952;BME280;6036;41.840;23.486;2022-07-06T00:49:33;90562.25;;;20.31;76.53
11952;BME280;6036;41.840;23.486;2022-07-06T00:52:17;90568.47;;;19.99;77.18
11952;BME280;6036;41.840;23.486;2022-07-06T00:54:43;90560.78;;;20.19;76.04
11952;BME280;6036;41.840;23.486;2022-07-06T00:57:09;90564.28;;;20.02;77.47
11952;BME280;6036;41.840;23.486;2022-07-06T00:59:35;90561.44;;;20.41;75.61
11952;BME280;6036;41.840;23.486;2022-07-06T01:02:02;90557.44;;;20.66;73.77
11952;BME280;6036;41.840;23.486;2022-07-06T01:04:27;90539.09;;;20.83;72.22
11952;BME280;6036;41.840;23.486;2022-07-06T01:06:53;90548.31;;;20.67;72.38
11952;BME280;6036;41.840;23.486;2022-07-06T01:09:19;90532.34;;;20.71;71.71
11952;BME280;6036;41.840;23.486;2022-07-06T01:11:44;90533.25;;;20.47;73.22
11952;BME280;6036;41.840;23.486;2022-07-06T01:14:11;90525.91;;;20.03;75.37
11952;BME280;6036;41.840;23.486;2022-07-06T01:16:37;90518.53;;;19.56;77.49
11952;BME280;6036;41.840;23.486;2022-07-06T01:19:03;90503.75;;;19.58;77.40
11952;BME280;6036;41.840;23.486;2022-07-06T01:21:28;90500.78;;;19.42;77.96
11952;BME280;6036;41.840;23.486;2022-07-06T01:23:54;90491.28;;;19.55;76.98
11952;BME280;6036;41.840;23.486;2022-07-06T01:26:20;90485.94;;;19.59;75.99
11952;BME280;6036;41.840;23.486;2022-07-06T01:28:47;90480.53;;;19.80;75.43
11952;BME280;6036;41.840;23.486;2022-07-06T01:31:15;90490.63;;;20.06;74.40
11952;BME280;6036;41.840;23.486;2022-07-06T01:33:42;90492.78;;;20.25;73.46
11952;BME280;6036;41.840;23.486;2022-07-06T01:36:07;90499.88;;;20.42;72.55
11952;BME280;6036;41.840;23.486;2022-07-06T01:41:11;90504.84;;;20.40;71.81
11952;BME280;6036;41.840;23.486;2022-07-06T01:43:37;90504.97;;;20.16;72.94
11952;BME280;6036;41.840;23.486;2022-07-06T01:46:02;90501.25;;;20.06;73.13
11952;BME280;6036;41.840;23.486;2022-07-06T01:48:28;90499.47;;;19.82;73.43
11952;BME280;6036;41.840;23.486;2022-07-06T01:50:53;90497.19;;;19.80;73.40
11952;BME280;6036;41.840;23.486;2022-07-06T01:53:18;90499.94;;;19.66;73.62
11952;BME280;6036;41.840;23.486;2022-07-06T01:55:44;90503.34;;;19.67;73.69
11952;BME280;6036;41.840;23.486;2022-07-06T01:58:09;90505.56;;;19.79;73.52
11952;BME280;6036;41.840;23.486;2022-07-06T02:00:35;90501.63;;;20.04;72.30
11952;BME280;6036;41.840;23.486;2022-07-06T02:03:00;90498.97;;;20.04;72.33
11952;BME280;6036;41.840;23.486;2022-07-06T02:05:26;90497.03;;;20.12;71.62
11952;BME280;6036;41.840;23.486;2022-07-06T02:07:51;90485.28;;;20.09;71.30
11952;BME280;6036;41.840;23.486;2022-07-06T02:10:17;90483.41;;;20.03;71.34
11952;BME280;6036;41.840;23.486;2022-07-06T02:12:42;90491.78;;;19.98;70.25
11952;BME280;6036;41.840;23.486;2022-07-06T02:15:08;90497.06;;;20.05;70.28
11952;BME280;6036;41.840;23.486;2022-07-06T02:17:33;90488.41;;;19.94;69.65
11952;BME280;6036;41.840;23.486;2022-07-06T02:19:59;90496.75;;;19.96;69.33
11952;BME280;6036;41.840;23.486;2022-07-06T02:22:24;90492.91;;;20.00;69.19
11952;BME280;6036;41.840;23.486;2022-07-06T02:24:50;90497.50;;;19.93;68.95
11952;BME280;6036;41.840;23.486;2022-07-06T02:27:15;90492.63;;;19.84;69.38
11952;BME280;6036;41.840;23.486;2022-07-06T02:29:41;90496.09;;;19.74;68.83
11952;BME280;6036;41.840;23.486;2022-07-06T02:32:06;90495.78;;;19.62;69.46
11952;BME280;6036;41.840;23.486;2022-07-06T02:34:32;90497.31;;;19.56;70.09
11952;BME280;6036;41.840;23.486;2022-07-06T02:36:57;90491.19;;;19.66;69.99
11952;BME280;6036;41.840;23.486;2022-07-06T02:39:23;90490.75;;;19.81;69.18
11952;BME280;6036;41.840;23.486;2022-07-06T02:41:48;90488.69;;;20.10;68.17
11952;BME280;6036;41.840;23.486;2022-07-06T02:44:14;90491.28;;;20.17;66.95
11952;BME280;6036;41.840;23.486;2022-07-06T02:46:39;90491.75;;;20.05;66.92
11952;BME280;6036;41.840;23.486;2022-07-06T02:49:04;90493.81;;;19.76;68.28
11952;BME280;6036;41.840;23.486;2022-07-06T02:51:30;90500.25;;;19.82;67.17
11952;BME280;6036;41.840;23.486;2022-07-06T02:53:55;90482.09;;;19.67;67.97
11952;BME280;6036;41.840;23.486;2022-07-06T02:56:21;90488.94;;;19.61;67.94
11952;BME280;6036;41.840;23.486;2022-07-06T02:58:46;90482.09;;;19.67;67.51
11952;BME280;6036;41.840;23.486;2022-07-06T03:01:11;90484.34;;;19.72;67.06
11952;BME280;6036;41.840;23.486;2022-07-06T03:03:37;90484.34;;;19.72;67.52
11952;BME280;6036;41.840;23.486;2022-07-06T03:06:02;90483.63;;;19.61;67.49
11952;BME280;6036;41.840;23.486;2022-07-06T03:08:27;90482.09;;;19.67;67.31
11952;BME280;6036;41.840;23.486;2022-07-06T03:10:53;90477.88;;;19.80;66.68
11952;BME280;6036;41.840;23.486;2022-07-06T03:13:18;90482.34;;;19.93;66.33
11952;BME280;6036;41.840;23.486;2022-07-06T03:15:44;90482.34;;;19.97;65.99
11952;BME280;6036;41.840;23.486;2022-07-06T03:18:09;90485.03;;;19.83;65.78
11952;BME280;6036;41.840;23.486;2022-07-06T03:20:35;90483.56;;;19.82;65.78
11952;BME280;6036;41.840;23.486;2022-07-06T03:23:00;90484.31;;;19.82;66.15
11952;BME280;6036;41.840;23.486;2022-07-06T03:25:25;90480.91;;;19.78;66.63
11952;BME280;6036;41.840;23.486;2022-07-06T03:27:51;90485.31;;;19.09;69.49
11952;BME280;6036;41.840;23.486;2022-07-06T03:30:16;90486.09;;;19.02;70.48
11952;BME280;6036;41.840;23.486;2022-07-06T03:32:42;90487.59;;;19.07;69.55
11952;BME280;6036;41.840;23.486;2022-07-06T03:35:07;90483.75;;;19.22;68.87
11952;BME280;6036;41.840;23.486;2022-07-06T03:37:33;90488.22;;;19.53;67.45
11952;BME280;6036;41.840;23.486;2022-07-06T03:39:58;90491.34;;;19.27;69.52
11952;BME280;6036;41.840;23.486;2022-07-06T03:42:24;90489.91;;;18.87;71.19
11952;BME280;6036;41.840;23.486;2022-07-06T03:44:49;90495.22;;;18.69;72.59
11952;BME280;6036;41.840;23.486;2022-07-06T03:47:15;90498.22;;;19.00;71.90
11952;BME280;6036;41.840;23.486;2022-07-06T03:49:40;90497.34;;;19.48;69.24
11952;BME280;6036;41.840;23.486;2022-07-06T03:52:06;90488.16;;;19.71;68.17
11952;BME280;6036;41.840;23.486;2022-07-06T03:54:31;90492.06;;;19.45;69.01
11952;BME280;6036;41.840;23.486;2022-07-06T03:56:56;90496.63;;;19.30;69.67
11952;BME280;6036;41.840;23.486;2022-07-06T03:59:22;90495.13;;;19.29;70.45
11952;BME280;6036;41.840;23.486;2022-07-06T04:01:47;90492.81;;;19.31;70.67
11952;BME280;6036;41.840;23.486;2022-07-06T04:04:13;90489.78;;;19.43;70.51
11952;BME280;6036;41.840;23.486;2022-07-06T04:06:38;90481.81;;;19.43;70.92
11952;BME280;6036;41.840;23.486;2022-07-06T04:09:04;90489.03;;;19.36;71.18
11952;BME280;6036;41.840;23.486;2022-07-06T04:11:30;90488.56;;;19.62;69.98
11952;BME280;6036;41.840;23.486;2022-07-06T04:13:55;90487.69;;;19.83;69.09
11952;BME280;6036;41.840;23.486;2022-07-06T04:16:21;90487.34;;;19.81;69.95
11952;BME280;6036;41.840;23.486;2022-07-06T04:18:46;90487.25;;;19.95;69.26
11952;BME280;6036;41.840;23.486;2022-07-06T04:21:11;90504.66;;;20.03;69.58
11952;BME280;6036;41.840;23.486;2022-07-06T04:23:37;90492.09;;;20.14;69.46
11952;BME280;6036;41.840;23.486;2022-07-06T04:26:02;90489.34;;;20.28;69.30
11952;BME280;6036;41.840;23.486;2022-07-06T04:28:28;90498.75;;;20.40;68.94
11952;BME280;6036;41.840;23.486;2022-07-06T04:30:53;90494.69;;;20.28;69.03
11952;BME280;6036;41.840;23.486;2022-07-06T04:33:19;90487.41;;;20.39;68.78
11952;BME280;6036;41.840;23.486;2022-07-06T04:35:44;90487.81;;;20.34;68.93
11952;BME280;6036;41.840;23.486;2022-07-06T04:38:10;90479.22;;;20.64;68.10
11952;BME280;6036;41.840;23.486;2022-07-06T04:40:35;90487.56;;;20.62;68.07
11952;BME280;6036;41.840;23.486;2022-07-06T04:43:01;90492.97;;;20.55;68.51
11952;BME280;6036;41.840;23.486;2022-07-06T04:45:26;90494.41;;;20.63;68.23
11952;BME280;6036;41.840;23.486;2022-07-06T04:47:51;90486.34;;;20.74;68.09
11952;BME280;6036;41.840;23.486;2022-07-06T04:50:17;90501.09;;;20.82;68.45
11952;BME280;6036;41.840;23.486;2022-07-06T04:52:42;90495.34;;;20.87;68.66
11952;BME280;6036;41.840;23.486;2022-07-06T04:55:08;90496.19;;;20.81;69.17
11952;BME280;6036;41.840;23.486;2022-07-06T04:57:34;90500.94;;;21.00;69.23
11952;BME280;6036;41.840;23.486;2022-07-06T05:00:00;90505.00;;;21.15;68.07
11952;BME280;6036;41.840;23.486;2022-07-06T05:02:25;90500.19;;;21.40;67.88
11952;BME280;6036;41.840;23.486;2022-07-06T05:04:51;90505.94;;;21.35;67.09
11952;BME280;6036;41.840;23.486;2022-07-06T05:07:16;90503.97;;;21.43;67.26
11952;BME280;6036;41.840;23.486;2022-07-06T05:09:42;90503.44;;;21.55;66.54
11952;BME280;6036;41.840;23.486;2022-07-06T05:12:08;90518.63;;;21.58;66.37
11952;BME280;6036;41.840;23.486;2022-07-06T05:14:34;90515.09;;;21.98;65.41
11952;BME280;6036;41.840;23.486;2022-07-06T05:17:00;90517.31;;;22.33;63.66
11952;BME280;6036;41.840;23.486;2022-07-06T05:19:26;90517.22;;;22.67;62.53
11952;BME280;6036;41.840;23.486;2022-07-06T05:21:51;90520.31;;;23.12;60.08
11952;BME280;6036;41.840;23.486;2022-07-06T05:24:17;90520.81;;;23.26;58.93
11952;BME280;6036;41.840;23.486;2022-07-06T05:26:44;90524.19;;;23.30;58.66
11952;BME280;6036;41.840;23.486;2022-07-06T05:29:09;90525.84;;;23.87;56.93
11952;BME280;6036;41.840;23.486;2022-07-06T05:31:35;90519.72;;;24.26;54.91
11952;BME280;6036;41.840;23.486;2022-07-06T05:34:00;90514.66;;;24.47;53.71
11952;BME280;6036;41.840;23.486;2022-07-06T05:36:26;90519.56;;;24.85;53.21
11952;BME280;6036;41.840;23.486;2022-07-06T05:38:51;90528.28;;;25.05;51.81
11952;BME280;6036;41.840;23.486;2022-07-06T05:41:16;90527.59;;;24.85;52.23
11952;BME280;6036;41.840;23.486;2022-07-06T05:43:42;90537.16;;;25.18;51.59
11952;BME280;6036;41.840;23.486;2022-07-06T05:46:07;90535.56;;;25.20;52.09
11952;BME280;6036;41.840;23.486;2022-07-06T05:48:32;90536.38;;;25.34;51.67
11952;BME280;6036;41.840;23.486;2022-07-06T05:51:16;90541.00;;;25.01;51.82
11952;BME280;6036;41.840;23.486;2022-07-06T05:53:42;90546.53;;;25.10;52.39
11952;BME280;6036;41.840;23.486;2022-07-06T05:56:07;90539.66;;;25.09;52.66
11952;BME280;6036;41.840;23.486;2022-07-06T05:58:32;90545.50;;;25.04;52.76
11952;BME280;6036;41.840;23.486;2022-07-06T06:00:58;90535.78;;;25.26;52.69
11952;BME280;6036;41.840;23.486;2022-07-06T06:03:23;90530.59;;;25.35;51.96
11952;BME280;6036;41.840;23.486;2022-07-06T06:05:48;90534.97;;;26.03;50.89
11952;BME280;6036;41.840;23.486;2022-07-06T06:08:14;90540.63;;;26.21;50.66
11952;BME280;6036;41.840;23.486;2022-07-06T06:10:39;90540.13;;;26.10;49.70
11952;BME280;6036;41.840;23.486;2022-07-06T06:13:05;90537.38;;;26.13;49.49
11952;BME280;6036;41.840;23.486;2022-07-06T06:15:30;90542.72;;;26.67;49.16
11952;BME280;6036;41.840;23.486;2022-07-06T06:17:56;90535.88;;;26.91;48.18
11952;BME280;6036;41.840;23.486;2022-07-06T06:20:21;90537.97;;;27.34;46.66
11952;BME280;6036;41.840;23.486;2022-07-06T06:22:51;90540.59;;;27.72;45.97
11952;BME280;6036;41.840;23.486;2022-07-06T06:25:19;90545.44;;;27.99;46.11
11952;BME280;6036;41.840;23.486;2022-07-06T06:27:45;90547.44;;;28.51;43.83
11952;BME280;6036;41.840;23.486;2022-07-06T06:30:12;90537.03;;;29.23;43.30
11952;BME280;6036;41.840;23.486;2022-07-06T06:32:37;90532.19;;;30.03;40.91
11952;BME280;6036;41.840;23.486;2022-07-06T06:35:04;90528.13;;;30.53;39.74
11952;BME280;6036;41.840;23.486;2022-07-06T06:37:29;90537.78;;;30.87;38.73
11952;BME280;6036;41.840;23.486;2022-07-06T06:39:55;90541.09;;;31.24;38.29
11952;BME280;6036;41.840;23.486;2022-07-06T06:42:20;90541.81;;;31.33;37.66
11952;BME280;6036;41.840;23.486;2022-07-06T06:44:45;90541.56;;;31.22;37.33
11952;BME280;6036;41.840;23.486;2022-07-06T06:47:11;90542.00;;;31.30;37.37
11952;BME280;6036;41.840;23.486;2022-07-06T06:49:36;90536.63;;;31.53;36.41
11952;BME280;6036;41.840;23.486;2022-07-06T06:52:02;90541.06;;;31.33;36.79
11952;BME280;6036;41.840;23.486;2022-07-06T06:54:27;90538.66;;;31.35;36.84
11952;BME280;6036;41.840;23.486;2022-07-06T06:56:52;90534.19;;;31.56;36.75
11952;BME280;6036;41.840;23.486;2022-07-06T06:59:18;90532.09;;;31.27;37.06
11952;BME280;6036;41.840;23.486;2022-07-06T07:01:43;90528.69;;;31.41;35.94
11952;BME280;6036;41.840;23.486;2022-07-06T07:04:09;90523.41;;;31.14;37.23
11952;BME280;6036;41.840;23.486;2022-07-06T07:06:34;90523.03;;;31.86;34.67
11952;BME280;6036;41.840;23.486;2022-07-06T07:09:00;90529.47;;;32.12;33.83
11952;BME280;6036;41.840;23.486;2022-07-06T07:11:26;90518.94;;;31.91;33.66
11952;BME280;6036;41.840;23.486;2022-07-06T07:13:51;90524.94;;;32.33;34.04
11952;BME280;6036;41.840;23.486;2022-07-06T07:16:16;90519.00;;;32.58;34.14
11952;BME280;6036;41.840;23.486;2022-07-06T07:18:42;90525.16;;;32.88;34.38
11952;BME280;6036;41.840;23.486;2022-07-06T07:21:07;90520.47;;;32.59;35.25
11952;BME280;6036;41.840;23.486;2022-07-06T07:23:33;90526.38;;;32.58;35.50
11952;BME280;6036;41.840;23.486;2022-07-06T07:25:58;90526.72;;;33.09;34.08
11952;BME280;6036;41.840;23.486;2022-07-06T07:28:23;90528.03;;;33.14;33.14
11952;BME280;6036;41.840;23.486;2022-07-06T07:30:49;90519.06;;;33.22;33.37
11952;BME280;6036;41.840;23.486;2022-07-06T07:33:16;90513.00;;;33.48;33.36
11952;BME280;6036;41.840;23.486;2022-07-06T07:35:43;90516.66;;;33.45;33.34
11952;BME280;6036;41.840;23.486;2022-07-06T07:38:08;90516.22;;;33.31;33.48
11952;BME280;6036;41.840;23.486;2022-07-06T07:40:33;90507.72;;;33.59;33.53
11952;BME280;6036;41.840;23.486;2022-07-06T07:43:00;90506.38;;;33.69;32.27
11952;BME280;6036;41.840;23.486;2022-07-06T07:45:26;90503.53;;;33.78;31.62
11952;BME280;6036;41.840;23.486;2022-07-06T07:47:52;90518.13;;;34.00;31.54
11952;BME280;6036;41.840;23.486;2022-07-06T07:50:17;90511.22;;;33.79;32.54
11952;BME280;6036;41.840;23.486;2022-07-06T07:52:43;90510.88;;;33.92;32.40
11952;BME280;6036;41.840;23.486;2022-07-06T07:55:09;90509.97;;;34.00;32.35
11952;BME280;6036;41.840;23.486;2022-07-06T07:57:34;90513.88;;;34.14;32.58
11952;BME280;6036;41.840;23.486;2022-07-06T07:59:59;90510.31;;;33.88;32.88
11952;BME280;6036;41.840;23.486;2022-07-06T08:02:25;90504.00;;;33.96;32.40
11952;BME280;6036;41.840;23.486;2022-07-06T08:04:50;90507.84;;;34.30;31.76
11952;BME280;6036;41.840;23.486;2022-07-06T08:07:16;90514.13;;;34.36;30.78
11952;BME280;6036;41.840;23.486;2022-07-06T08:09:41;90505.06;;;34.71;29.80
11952;BME280;6036;41.840;23.486;2022-07-06T08:12:07;90511.41;;;34.88;29.68
11952;BME280;6036;41.840;23.486;2022-07-06T08:14:32;90507.31;;;34.52;30.53
11952;BME280;6036;41.840;23.486;2022-07-06T08:16:58;90512.84;;;34.32;31.07
11952;BME280;6036;41.840;23.486;2022-07-06T08:19:23;90515.78;;;34.08;30.92
11952;BME280;6036;41.840;23.486;2022-07-06T08:21:49;90503.31;;;33.61;31.63
11952;BME280;6036;41.840;23.486;2022-07-06T08:24:14;90512.50;;;33.14;31.71
11952;BME280;6036;41.840;23.486;2022-07-06T08:26:40;90509.13;;;33.19;31.50
11952;BME280;6036;41.840;23.486;2022-07-06T08:29:05;90508.25;;;33.42;31.89
11952;BME280;6036;41.840;23.486;2022-07-06T08:31:31;90509.31;;;33.30;30.25
11952;BME280;6036;41.840;23.486;2022-07-06T08:33:58;90500.38;;;32.95;30.47
11952;BME280;6036;41.840;23.486;2022-07-06T08:36:24;90508.66;;;33.21;30.13
11952;BME280;6036;41.840;23.486;2022-07-06T08:38:50;90509.09;;;33.34;29.88
11952;BME280;6036;41.840;23.486;2022-07-06T08:41:16;90501.50;;;32.74;30.45
11952;BME280;6036;41.840;23.486;2022-07-06T08:43:42;90505.97;;;33.06;29.53
11952;BME280;6036;41.840;23.486;2022-07-06T08:46:08;90496.94;;;33.29;29.72
11952;BME280;6036;41.840;23.486;2022-07-06T08:48:38;90499.66;;;32.65;30.48
11952;BME280;6036;41.840;23.486;2022-07-06T08:51:05;90511.75;;;32.99;31.25
11952;BME280;6036;41.840;23.486;2022-07-06T08:53:31;90505.59;;;32.84;30.55
11952;BME280;6036;41.840;23.486;2022-07-06T08:55:57;90499.75;;;32.71;31.05
11952;BME280;6036;41.840;23.486;2022-07-06T08:58:24;90504.28;;;32.94;29.74
11952;BME280;6036;41.840;23.486;2022-07-06T09:00:50;90506.81;;;33.12;29.89
11952;BME280;6036;41.840;23.486;2022-07-06T09:03:16;90506.16;;;33.17;29.23
11952;BME280;6036;41.840;23.486;2022-07-06T09:05:45;90499.19;;;32.52;30.20
11952;BME280;6036;41.840;23.486;2022-07-06T09:08:11;90502.72;;;32.73;30.90
11952;BME280;6036;41.840;23.486;2022-07-06T09:10:37;90496.25;;;33.00;30.09
11952;BME280;6036;41.840;23.486;2022-07-06T09:13:05;90493.03;;;33.01;29.77
11952;BME280;6036;41.840;23.486;2022-07-06T09:15:32;90495.13;;;32.77;30.41
11952;BME280;6036;41.840;23.486;2022-07-06T09:17:58;90493.06;;;32.87;30.64
11952;BME280;6036;41.840;23.486;2022-07-06T09:20:24;90489.09;;;32.53;30.44
11952;BME280;6036;41.840;23.486;2022-07-06T09:22:49;90478.59;;;32.46;30.37
11952;BME280;6036;41.840;23.486;2022-07-06T09:25:16;90491.63;;;32.03;31.26
11952;BME280;6036;41.840;23.486;2022-07-06T09:27:43;90485.91;;;32.54;31.53
11952;BME280;6036;41.840;23.486;2022-07-06T09:30:13;90494.38;;;32.76;30.57
11952;BME280;6036;41.840;23.486;2022-07-06T09:32:41;90486.66;;;32.55;30.63
11952;BME280;6036;41.840;23.486;2022-07-06T09:35:07;90490.25;;;32.37;30.34
11952;BME280;6036;41.840;23.486;2022-07-06T09:37:32;90484.66;;;32.26;31.73
11952;BME280;6036;41.840;23.486;2022-07-06T09:39:58;90477.19;;;32.36;31.97
11952;BME280;6036;41.840;23.486;2022-07-06T09:42:25;90477.97;;;32.51;30.69
11952;BME280;6036;41.840;23.486;2022-07-06T09:44:51;90487.25;;;32.21;30.94
11952;BME280;6036;41.840;23.486;2022-07-06T09:47:17;90483.63;;;32.38;30.21
11952;BME280;6036;41.840;23.486;2022-07-06T09:49:45;90481.56;;;32.19;31.58
11952;BME280;6036;41.840;23.486;2022-07-06T09:52:11;90482.59;;;32.06;31.06
11952;BME280;6036;41.840;23.486;2022-07-06T09:54:38;90466.09;;;31.95;32.17
11952;BME280;6036;41.840;23.486;2022-07-06T09:57:04;90466.25;;;31.77;31.43
11952;BME280;6036;41.840;23.486;2022-07-06T09:59:33;90467.31;;;31.94;31.90
11952;BME280;6036;41.840;23.486;2022-07-06T10:02:00;90468.47;;;32.02;31.98
11952;BME280;6036;41.840;23.486;2022-07-06T10:04:27;90462.91;;;31.82;32.69
11952;BME280;6036;41.840;23.486;2022-07-06T10:06:54;90462.28;;;31.64;31.56
11952;BME280;6036;41.840;23.486;2022-07-06T10:09:21;90456.28;;;31.45;31.64
11952;BME280;6036;41.840;23.486;2022-07-06T10:14:17;90452.94;;;31.50;32.72
11952;BME280;6036;41.840;23.486;2022-07-06T10:16:43;90444.84;;;31.41;32.11
11952;BME280;6036;41.840;23.486;2022-07-06T10:19:10;90445.19;;;31.34;32.77
11952;BME280;6036;41.840;23.486;2022-07-06T10:21:38;90442.19;;;31.32;33.25
11952;BME280;6036;41.840;23.486;2022-07-06T10:24:05;90447.53;;;31.50;33.05
11952;BME280;6036;41.840;23.486;2022-07-06T10:26:32;90452.66;;;31.86;31.57
11952;BME280;6036;41.840;23.486;2022-07-06T10:28:58;90434.59;;;31.21;32.75
11952;BME280;6036;41.840;23.486;2022-07-06T10:31:26;90434.59;;;30.98;32.26
11952;BME280;6036;41.840;23.486;2022-07-06T10:33:58;90432.28;;;31.29;32.66
11952;BME280;6036;41.840;23.486;2022-07-06T10:36:24;90434.50;;;31.16;33.00
11952;BME280;6036;41.840;23.486;2022-07-06T10:38:51;90432.38;;;30.87;32.24
11952;BME280;6036;41.840;23.486;2022-07-06T10:41:18;90428.41;;;30.64;33.47
11952;BME280;6036;41.840;23.486;2022-07-06T10:43:45;90427.31;;;30.38;34.44
11952;BME280;6036;41.840;23.486;2022-07-06T10:46:15;90428.75;;;30.57;33.36
11952;BME280;6036;41.840;23.486;2022-07-06T10:48:46;90442.53;;;29.99;33.66
11952;BME280;6036;41.840;23.486;2022-07-06T10:51:13;90437.44;;;30.01;33.40
11952;BME280;6036;41.840;23.486;2022-07-06T10:53:55;90430.69;;;29.97;33.66
11952;BME280;6036;41.840;23.486;2022-07-06T10:56:32;90428.31;;;29.81;34.37
11952;BME280;6036;41.840;23.486;2022-07-06T10:59:02;90424.84;;;29.98;34.17
11952;BME280;6036;41.840;23.486;2022-07-06T11:01:28;90425.72;;;30.13;33.87
11952;BME280;6036;41.840;23.486;2022-07-06T11:06:24;90420.56;;;30.43;34.54
11952;BME280;6036;41.840;23.486;2022-07-06T11:16:40;90417.16;;;30.24;35.33
11952;BME280;6036;41.840;23.486;2022-07-06T11:19:26;90424.03;;;30.25;35.75
11952;BME280;6036;41.840;23.486;2022-07-06T11:21:52;90421.69;;;30.09;35.55
11952;BME280;6036;41.840;23.486;2022-07-06T11:24:20;90415.72;;;29.69;36.01
11952;BME280;6036;41.840;23.486;2022-07-06T11:26:48;90419.19;;;29.87;35.68
11952;BME280;6036;41.840;23.486;2022-07-06T11:29:15;90414.97;;;29.68;35.99
11952;BME280;6036;41.840;23.486;2022-07-06T11:31:46;90417.06;;;29.64;36.35
11952;BME280;6036;41.840;23.486;2022-07-06T11:34:14;90413.91;;;29.93;36.86
11952;BME280;6036;41.840;23.486;2022-07-06T11:36:43;90422.00;;;30.02;36.34
11952;BME280;6036;41.840;23.486;2022-07-06T11:39:08;90416.47;;;29.96;35.63
11952;BME280;6036;41.840;23.486;2022-07-06T11:41:34;90415.13;;;29.64;36.06
11952;BME280;6036;41.840;23.486;2022-07-06T11:44:01;90404.34;;;29.46;36.79
11952;BME280;6036;41.840;23.486;2022-07-06T11:46:31;90421.25;;;29.74;36.41
11952;BME280;6036;41.840;23.486;2022-07-06T11:49:08;90423.50;;;29.39;36.90
11952;BME280;6036;41.840;23.486;2022-07-06T11:51:36;90422.00;;;29.20;36.93
11952;BME280;6036;41.840;23.486;2022-07-06T11:54:14;90416.28;;;29.18;38.35
11952;BME280;6036;41.840;23.486;2022-07-06T11:56:56;90413.63;;;29.27;38.26
11952;BME280;6036;41.840;23.486;2022-07-06T11:59:34;90412.44;;;29.64;38.06
11952;BME280;6036;41.840;23.486;2022-07-06T12:02:10;90417.22;;;29.60;37.84
11952;BME280;6036;41.840;23.486;2022-07-06T12:04:38;90408.06;;;29.58;37.55
11952;BME280;6036;41.840;23.486;2022-07-06T12:07:06;90411.84;;;29.42;37.73
11952;BME280;6036;41.840;23.486;2022-07-06T12:09:34;90415.56;;;29.72;37.17
11952;BME280;6036;41.840;23.486;2022-07-06T12:11:59;90417.22;;;29.88;36.90
11952;BME280;6036;41.840;23.486;2022-07-06T12:14:32;90431.16;;;29.86;36.56
11952;BME280;6036;41.840;23.486;2022-07-06T12:17:06;90426.84;;;29.80;36.69
11952;BME280;6036;41.840;23.486;2022-07-06T12:19:32;90427.41;;;29.84;36.67
11952;BME280;6036;41.840;23.486;2022-07-06T12:21:58;90433.53;;;29.93;36.63
11952;BME280;6036;41.840;23.486;2022-07-06T12:24:26;90429.50;;;29.71;37.28
11952;BME280;6036;41.840;23.486;2022-07-06T12:26:58;90431.31;;;29.83;36.75
11952;BME280;6036;41.840;23.486;2022-07-06T12:29:24;90435.94;;;29.73;37.11
11952;BME280;6036;41.840;23.486;2022-07-06T12:31:52;90425.75;;;30.04;36.64
11952;BME280;6036;41.840;23.486;2022-07-06T12:34:29;90421.88;;;29.78;36.62
11952;BME280;6036;41.840;23.486;2022-07-06T12:37:05;90426.94;;;29.76;37.22
11952;BME280;6036;41.840;23.486;2022-07-06T12:39:31;90429.50;;;29.61;37.04
11952;BME280;6036;41.840;23.486;2022-07-06T12:42:04;90422.16;;;29.62;36.93
11952;BME280;6036;41.840;23.486;2022-07-06T12:44:30;90414.22;;;29.58;37.41
11952;BME280;6036;41.840;23.486;2022-07-06T12:47:04;90413.63;;;29.91;37.16
11952;BME280;6036;41.840;23.486;2022-07-06T12:49:30;90411.97;;;29.84;36.84
11952;BME280;6036;41.840;23.486;2022-07-06T12:52:08;90410.47;;;29.74;36.66
11952;BME280;6036;41.840;23.486;2022-07-06T12:54:46;90407.94;;;29.52;37.09
11952;BME280;6036;41.840;23.486;2022-07-06T12:57:18;90404.94;;;29.32;37.64
11952;BME280;6036;41.840;23.486;2022-07-06T12:59:55;90415.09;;;29.19;36.99
11952;BME280;6036;41.840;23.486;2022-07-06T13:02:30;90404.94;;;29.32;37.31
11952;BME280;6036;41.840;23.486;2022-07-06T13:07:24;90406.00;;;29.35;38.27
11952;BME280;6036;41.840;23.486;2022-07-06T13:09:49;90402.56;;;29.52;37.41
11952;BME280;6036;41.840;23.486;2022-07-06T13:12:15;90407.03;;;29.19;38.21
11952;BME280;6036;41.840;23.486;2022-07-06T13:14:40;90399.56;;;29.23;37.29